createdAt,value
2019-05-12T00:00:43.069Z,2.10
2019-05-12T00:03:23.886Z,1.97
2019-05-12T00:06:05.253Z,1.77
2019-05-12T00:11:59.516Z,2.07
2019-05-12T00:14:40.933Z,2.30
2019-05-12T00:20:20.898Z,2.63
2019-05-12T00:23:04.451Z,3.10
2019-05-12T00:25:45.292Z,3.23
2019-05-12T00:28:28.386Z,3.00
2019-05-12T00:31:10.113Z,3.60
2019-05-12T00:36:33.794Z,2.60
2019-05-12T00:39:05.053Z,2.50
2019-05-12T00:41:54.697Z,3.30
2019-05-12T00:44:43.442Z,2.57
2019-05-12T00:47:32.240Z,3.10
2019-05-12T00:50:20.963Z,2.60
2019-05-12T00:53:09.871Z,2.77
2019-05-12T00:55:51.249Z,2.20
2019-05-12T00:58:21.646Z,3.03
2019-05-12T01:01:03.053Z,2.50
2019-05-12T01:03:44.253Z,2.43
2019-05-12T01:06:25.343Z,1.90
2019-05-12T01:09:08.823Z,2.43
2019-05-12T01:11:49.533Z,2.60
2019-05-12T01:14:31.143Z,2.67
2019-05-12T01:17:12.309Z,2.83
2019-05-12T01:19:53.766Z,3.10
2019-05-12T01:22:35.118Z,2.77
2019-05-12T01:25:17.644Z,3.00
2019-05-12T01:27:59.207Z,3.33
2019-05-12T01:30:40.549Z,3.53
2019-05-12T01:33:22.179Z,3.57
2019-05-12T01:36:03.360Z,3.23
2019-05-12T01:38:44.778Z,3.00
2019-05-12T01:41:28.487Z,4.33
2019-05-12T01:44:08.974Z,3.10
2019-05-12T01:46:50.146Z,3.60
2019-05-12T01:49:31.690Z,3.50
2019-05-12T01:52:13.290Z,3.13
2019-05-12T01:54:54.721Z,3.20
2019-05-12T01:57:38.467Z,3.40
2019-05-12T02:00:18.694Z,3.00
2019-05-12T02:03:00.771Z,2.50
2019-05-12T02:05:44.738Z,2.60
2019-05-12T02:08:27.900Z,2.13
2019-05-12T02:11:28.988Z,2.67
2019-05-12T02:14:09.874Z,2.50
2019-05-12T02:16:51.254Z,2.70
2019-05-12T02:19:32.828Z,2.60
2019-05-12T02:24:58.442Z,2.50
2019-05-12T02:27:38.493Z,2.93
2019-05-12T02:30:30.279Z,2.30
2019-05-12T02:33:17.656Z,2.40
2019-05-12T02:36:07.153Z,2.50
2019-05-12T02:38:56.219Z,2.53
2019-05-12T02:41:46.418Z,2.30
2019-05-12T02:44:35.238Z,2.30
2019-05-12T02:47:24.297Z,2.87
2019-05-12T02:50:14.515Z,2.83
2019-05-12T02:53:05.352Z,2.40
2019-05-12T02:56:15.368Z,2.87
2019-05-12T02:59:05.424Z,2.50
2019-05-12T03:01:47.543Z,3.00
2019-05-12T03:04:29.011Z,2.70
2019-05-12T03:09:54.980Z,2.17
2019-05-12T03:12:25.569Z,3.00
2019-05-12T03:15:15.304Z,2.47
2019-05-12T03:18:06.487Z,2.40
2019-05-12T03:20:56.046Z,2.37
2019-05-12T03:23:45.064Z,2.73
2019-05-12T03:26:34.798Z,2.30
2019-05-12T03:29:25.203Z,2.50
2019-05-12T03:32:17.647Z,2.43
2019-05-12T03:35:08.703Z,2.17
2019-05-12T03:37:56.236Z,2.13
2019-05-12T03:40:45.366Z,2.30
2019-05-12T03:43:35.709Z,2.30
2019-05-12T03:46:24.990Z,2.00
2019-05-12T03:49:15.587Z,1.90
2019-05-12T03:52:05.438Z,2.40
2019-05-12T03:54:56.062Z,2.13
2019-05-12T03:57:45.158Z,3.20
2019-05-12T04:00:36.135Z,2.20
2019-05-12T04:03:16.559Z,2.47
2019-05-12T04:06:05.279Z,2.20
2019-05-12T04:08:56.032Z,2.53
2019-05-12T04:11:44.552Z,2.70
2019-05-12T04:14:34.591Z,2.33
2019-05-12T04:17:24.343Z,2.67
2019-05-12T04:20:25.786Z,2.50
2019-05-12T04:23:15.343Z,1.97
2019-05-12T04:28:59.449Z,2.47
2019-05-12T04:31:48.191Z,2.40
2019-05-12T04:34:37.358Z,2.50
2019-05-12T04:37:26.447Z,2.43
2019-05-12T04:40:15.223Z,2.70
2019-05-12T04:43:06.189Z,2.47
2019-05-12T04:45:55.255Z,2.30
2019-05-12T04:48:45.247Z,2.30
2019-05-12T04:51:35.147Z,1.50
2019-05-12T04:54:24.959Z,2.10
2019-05-12T04:57:14.879Z,1.87
2019-05-12T05:00:05.199Z,1.63
2019-05-12T05:02:55.050Z,2.27
2019-05-12T05:05:36.575Z,2.17
2019-05-12T05:08:19.825Z,2.37
2019-05-12T05:11:00.298Z,2.40
2019-05-12T05:13:44.193Z,2.00
2019-05-12T05:16:24.825Z,2.10
2019-05-12T05:19:06.412Z,2.30
2019-05-12T05:21:48.417Z,2.13
2019-05-12T05:24:29.333Z,2.10
2019-05-12T05:27:10.510Z,2.33
2019-05-12T05:29:51.298Z,2.53
2019-05-12T05:32:33.975Z,2.93
2019-05-12T05:35:14.811Z,2.60
2019-05-12T05:37:56.151Z,2.80
2019-05-12T05:43:19.062Z,2.53
2019-05-12T05:46:02.509Z,2.63
2019-05-12T05:48:43.968Z,2.90
2019-05-12T05:51:25.720Z,2.50
2019-05-12T05:54:07.141Z,2.53
2019-05-12T05:56:58.332Z,2.07
2019-05-12T05:59:33.268Z,2.07
2019-05-12T06:02:13.917Z,2.60
2019-05-12T06:04:56.416Z,1.97
2019-05-12T06:07:39.188Z,2.70
2019-05-12T06:10:34.368Z,2.80
2019-05-12T06:13:04.321Z,2.10
2019-05-12T06:21:44.003Z,2.23
2019-05-12T06:24:26.055Z,2.60
2019-05-12T06:27:15.207Z,1.97
2019-05-12T06:29:54.461Z,2.43
2019-05-12T06:32:33.645Z,2.47
2019-05-12T06:35:15.220Z,2.27
2019-05-12T06:38:01.396Z,1.93
2019-05-12T06:40:42.324Z,2.27
2019-05-12T06:43:24.356Z,1.70
2019-05-12T06:46:06.002Z,1.40
2019-05-12T06:48:46.903Z,1.90
2019-05-12T06:51:28.543Z,2.30
2019-05-12T06:54:12.052Z,1.90
2019-05-12T06:56:57.897Z,2.50
2019-05-12T06:59:36.479Z,2.30
2019-05-12T07:05:00.525Z,2.03
2019-05-12T07:07:45.026Z,2.00
2019-05-12T07:10:36.858Z,2.20
2019-05-12T07:13:07.785Z,2.37
2019-05-12T07:15:40.435Z,2.17
2019-05-12T07:18:14.014Z,2.23
2019-05-12T07:20:44.006Z,2.10
2019-05-12T07:23:14.364Z,2.80
2019-05-12T07:25:44.666Z,2.60
2019-05-12T07:28:14.936Z,2.60
2019-05-12T07:30:45.151Z,2.53
2019-05-12T07:33:14.938Z,2.80
2019-05-12T07:35:45.658Z,2.53
2019-05-12T07:38:20.868Z,2.57
2019-05-12T07:40:49.624Z,2.60
2019-05-12T07:43:24.268Z,3.43
2019-05-12T07:46:02.480Z,2.80
2019-05-12T07:48:25.574Z,2.63
2019-05-12T07:51:00.430Z,3.10
2019-05-12T07:53:27.477Z,3.63
2019-05-12T07:55:57.202Z,3.50
2019-05-12T07:58:26.983Z,4.90
2019-05-12T08:01:02.430Z,3.13
2019-05-12T08:03:28.627Z,3.60
2019-05-12T08:06:01.626Z,4.17
2019-05-12T08:08:30.271Z,4.20
2019-05-12T08:11:00.864Z,3.80
2019-05-12T08:13:36.547Z,3.50
2019-05-12T08:16:03.675Z,3.70
2019-05-12T08:18:38.984Z,4.03
2019-05-12T08:21:05.290Z,4.07
2019-05-12T08:23:37.767Z,4.00
2019-05-12T08:26:12.404Z,3.90
2019-05-12T08:28:40.440Z,4.17
2019-05-12T08:31:10.039Z,5.27
2019-05-12T08:33:39.925Z,4.40
2019-05-12T08:36:11.649Z,5.07
2019-05-12T08:38:44.255Z,5.00
2019-05-12T08:41:14.979Z,5.20
2019-05-12T08:43:47.209Z,4.87
2019-05-12T08:46:16.158Z,5.20
2019-05-12T08:48:46.018Z,5.07
2019-05-12T08:51:19.479Z,5.47
2019-05-12T08:53:47.400Z,4.90
2019-05-12T08:56:19.352Z,5.23
2019-05-12T08:58:51.340Z,5.97
2019-05-12T09:01:26.660Z,5.33
2019-05-12T09:03:53.863Z,5.30
2019-05-12T09:06:23.971Z,5.63
2019-05-12T09:08:54.287Z,5.57
2019-05-12T09:11:24.493Z,5.57
2019-05-12T09:14:00.427Z,5.40
2019-05-12T09:16:25.797Z,5.87
2019-05-12T09:18:55.568Z,5.77
2019-05-12T09:21:31.645Z,6.00
2019-05-12T09:23:57.049Z,6.30
2019-05-12T09:26:28.598Z,5.23
2019-05-12T09:28:58.986Z,6.23
2019-05-12T09:31:29.731Z,4.60
2019-05-12T09:34:05.854Z,4.87
2019-05-12T09:36:33.615Z,6.53
2019-05-12T09:39:03.848Z,6.50
2019-05-12T09:41:42.653Z,6.10
2019-05-12T09:44:05.868Z,7.07
2019-05-12T09:46:37.659Z,6.67
2019-05-12T09:49:07.888Z,7.10
2019-05-12T09:51:42.894Z,7.20
2019-05-12T09:54:10.018Z,6.30
2019-05-12T09:56:41.269Z,8.00
2019-05-12T09:59:18.991Z,6.37
2019-05-12T10:01:46.028Z,7.50
2019-05-12T10:04:19.486Z,7.30
2019-05-12T10:06:47.111Z,8.03
2019-05-12T10:09:19.791Z,6.90
2019-05-12T10:11:51.926Z,6.33
2019-05-12T10:14:23.401Z,8.63
2019-05-12T10:16:52.642Z,8.03
2019-05-12T10:19:23.561Z,7.97
2019-05-12T10:21:55.271Z,7.80
2019-05-12T10:24:26.150Z,8.70
2019-05-12T10:26:56.693Z,8.53
2019-05-12T10:29:30.617Z,8.40
2019-05-12T10:31:58.025Z,8.87
2019-05-12T10:34:29.228Z,7.77
2019-05-12T10:36:59.638Z,9.97
2019-05-12T10:39:29.734Z,10.37
2019-05-12T10:41:59.951Z,9.33
2019-05-12T10:44:35.538Z,9.57
2019-05-12T10:47:04.423Z,9.63
2019-05-12T10:49:34.999Z,9.97
2019-05-12T10:52:05.315Z,9.10
2019-05-12T10:54:35.118Z,9.50
2019-05-12T10:57:05.918Z,9.93
2019-05-12T10:59:38.955Z,9.47
2019-05-12T11:02:07.664Z,9.67
2019-05-12T11:04:41.147Z,9.97
2019-05-12T11:07:08.914Z,9.20
2019-05-12T11:09:38.714Z,9.47
2019-05-12T11:12:09.223Z,9.37
2019-05-12T11:14:39.398Z,10.47
2019-05-12T11:17:10.921Z,9.17
2019-05-12T11:19:47.206Z,9.80
2019-05-12T11:22:13.931Z,10.60
2019-05-12T11:24:44.576Z,9.43
2019-05-12T11:27:15.306Z,11.17
2019-05-12T11:29:49.131Z,10.47
2019-05-12T11:32:17.891Z,10.50
2019-05-12T11:34:47.731Z,10.80
2019-05-12T11:37:18.031Z,10.63
2019-05-12T11:39:47.938Z,10.47
2019-05-12T11:42:17.887Z,10.90
2019-05-12T11:44:47.989Z,9.57
2019-05-12T11:47:24.363Z,10.10
2019-05-12T11:49:50.118Z,11.03
2019-05-12T11:52:19.932Z,10.37
2019-05-12T11:54:53.637Z,12.00
2019-05-12T11:57:28.183Z,11.07
2019-05-12T12:00:02.019Z,11.73
2019-05-12T12:02:30.461Z,11.07
2019-05-12T12:04:58.550Z,10.53
2019-05-12T12:07:28.798Z,9.60
2019-05-12T12:09:59.535Z,10.93
2019-05-12T12:12:29.827Z,10.80
2019-05-12T12:14:59.814Z,9.97
2019-05-12T12:17:32.555Z,12.70
2019-05-12T12:20:03.793Z,11.50
2019-05-12T12:22:43.566Z,11.03
2019-05-12T12:25:15.629Z,12.50
2019-05-12T12:27:45.774Z,11.60
2019-05-12T12:30:19.815Z,13.00
2019-05-12T12:32:50.346Z,11.90
2019-05-12T12:35:20.338Z,12.30
2019-05-12T12:37:50.914Z,11.10
2019-05-12T12:40:20.946Z,10.80
2019-05-12T12:42:51.153Z,10.07
2019-05-12T12:45:43.398Z,11.17
2019-05-12T12:48:19.427Z,9.50
2019-05-12T12:50:46.254Z,10.47
2019-05-12T12:53:16.073Z,10.60
2019-05-12T12:55:47.205Z,11.40
2019-05-12T12:58:21.027Z,10.70
2019-05-12T13:00:56.133Z,10.90
2019-05-12T13:03:25.688Z,11.30
2019-05-12T13:05:54.278Z,10.87
2019-05-12T13:08:24.837Z,12.00
2019-05-12T13:10:55.488Z,11.40
2019-05-12T13:13:25.657Z,13.00
2019-05-12T13:15:55.954Z,12.10
2019-05-12T13:18:32.939Z,12.07
2019-05-12T13:20:58.199Z,12.07
2019-05-12T13:23:38.132Z,11.80
2019-05-12T13:26:00.167Z,11.23
2019-05-12T13:28:30.069Z,10.67
2019-05-12T13:31:08.964Z,10.60
2019-05-12T13:33:54.832Z,10.57
2019-05-12T13:36:14.733Z,9.90
2019-05-12T13:38:45.230Z,9.83
2019-05-12T13:41:19.634Z,10.30
2019-05-12T13:43:54.411Z,11.03
2019-05-12T13:46:18.750Z,10.97
2019-05-12T13:48:49.928Z,10.77
2019-05-12T13:51:20.882Z,9.50
2019-05-12T13:53:50.751Z,9.70
2019-05-12T13:56:25.843Z,8.80
2019-05-12T13:58:54.083Z,8.83
2019-05-12T14:01:25.002Z,9.07
2019-05-12T14:03:54.978Z,10.20
2019-05-12T14:06:32.070Z,9.07
2019-05-12T14:08:57.228Z,9.30
2019-05-12T14:11:27.885Z,8.03
2019-05-12T14:13:57.689Z,9.50
2019-05-12T14:16:27.670Z,8.27
2019-05-12T14:19:00.436Z,8.97
2019-05-12T14:21:33.060Z,8.27
2019-05-12T14:24:01.483Z,8.83
2019-05-12T14:26:33.400Z,8.30
2019-05-12T14:29:04.057Z,7.27
2019-05-12T14:31:44.005Z,8.10
2019-05-12T14:34:10.327Z,7.67
2019-05-12T14:36:38.850Z,8.13
2019-05-12T14:39:10.306Z,9.10
2019-05-12T14:41:44.401Z,7.50
2019-05-12T14:44:13.800Z,10.10
2019-05-12T14:46:46.390Z,10.40
2019-05-12T14:49:20.281Z,9.30
2019-05-12T14:51:47.532Z,10.83
2019-05-12T14:54:17.296Z,10.23
2019-05-12T14:56:53.022Z,9.57
2019-05-12T14:59:18.547Z,8.27
2019-05-12T15:01:57.200Z,8.10
2019-05-12T15:04:27.936Z,10.10
2019-05-12T15:06:53.396Z,9.37
2019-05-12T15:09:24.655Z,8.83
2019-05-12T15:11:54.574Z,8.57
2019-05-12T15:14:32.334Z,9.67
2019-05-12T15:16:57.124Z,8.80
2019-05-12T15:19:29.759Z,9.27
2019-05-12T15:22:01.620Z,8.50
2019-05-12T15:24:33.629Z,9.17
2019-05-12T15:27:03.830Z,10.37
2019-05-12T15:29:34.204Z,9.20
2019-05-12T15:32:04.141Z,8.80
2019-05-12T15:34:33.982Z,10.07
2019-05-12T15:37:04.387Z,9.00
2019-05-12T15:39:34.299Z,8.60
2019-05-12T15:42:04.406Z,10.17
2019-05-12T15:44:36.881Z,9.20
2019-05-12T15:47:06.502Z,8.57
2019-05-12T15:49:36.438Z,9.17
2019-05-12T15:52:06.915Z,8.83
2019-05-12T15:54:41.751Z,8.73
2019-05-12T15:57:08.946Z,10.60
2019-05-12T15:59:39.878Z,7.90
2019-05-12T16:02:16.470Z,7.90
2019-05-12T16:04:45.338Z,9.27
2019-05-12T16:07:14.756Z,9.23
2019-05-12T16:09:45.958Z,9.27
2019-05-12T16:12:23.681Z,10.47
2019-05-12T16:14:48.832Z,9.93
2019-05-12T16:17:24.756Z,9.27
2019-05-12T16:19:50.509Z,9.90
2019-05-12T16:22:23.089Z,9.37
2019-05-12T16:24:53.200Z,10.53
2019-05-12T16:27:24.868Z,9.93
2019-05-12T16:29:56.069Z,10.60
2019-05-12T16:32:32.464Z,10.37
2019-05-12T16:34:59.981Z,9.50
2019-05-12T16:37:31.600Z,7.90
2019-05-12T16:40:01.416Z,8.50
2019-05-12T16:42:33.481Z,7.27
2019-05-12T16:45:08.238Z,8.30
2019-05-12T16:47:35.808Z,9.03
2019-05-12T16:50:15.061Z,7.57
2019-05-12T16:52:40.716Z,8.83
2019-05-12T16:55:10.727Z,8.50
2019-05-12T16:57:47.556Z,8.97
2019-05-12T17:00:14.236Z,9.30
2019-05-12T17:02:56.397Z,10.93
2019-05-12T17:05:20.587Z,10.77
2019-05-12T17:07:50.228Z,8.63
2019-05-12T17:10:20.807Z,8.50
2019-05-12T17:12:50.590Z,8.47
2019-05-12T17:15:20.442Z,9.20
2019-05-12T17:17:55.381Z,8.60
2019-05-12T17:20:22.430Z,9.13
2019-05-12T17:22:54.897Z,8.17
2019-05-12T17:25:25.459Z,7.77
2019-05-12T17:27:58.187Z,8.70
2019-05-12T17:30:27.554Z,8.53
2019-05-12T17:33:01.903Z,8.60
2019-05-12T17:35:31.820Z,10.03
2019-05-12T17:38:04.044Z,9.10
2019-05-12T17:40:34.358Z,11.00
2019-05-12T17:43:10.003Z,10.17
2019-05-12T17:45:36.053Z,12.20
2019-05-12T17:48:07.513Z,10.80
2019-05-12T17:50:40.436Z,10.80
2019-05-12T17:53:13.593Z,11.07
2019-05-12T17:55:51.015Z,10.40
2019-05-12T17:58:15.040Z,9.83
2019-05-12T18:00:47.606Z,10.37
2019-05-12T18:03:21.936Z,9.80
2019-05-12T18:05:49.808Z,11.13
2019-05-12T18:08:24.067Z,9.80
2019-05-12T18:10:54.632Z,10.10
2019-05-12T18:13:28.070Z,10.13
2019-05-12T18:15:58.745Z,10.03
2019-05-12T18:18:32.803Z,11.27
2019-05-12T18:21:05.429Z,10.67
2019-05-12T18:23:36.745Z,10.33
2019-05-12T18:26:11.502Z,10.40
2019-05-12T18:28:40.756Z,11.60
2019-05-12T18:31:10.930Z,11.30
2019-05-12T18:33:48.964Z,10.80
2019-05-12T18:36:14.410Z,11.50
2019-05-12T18:38:44.843Z,12.57
2019-05-12T18:41:14.916Z,11.30
2019-05-12T18:43:44.698Z,11.47
2019-05-12T18:46:15.311Z,11.70
2019-05-12T18:48:45.687Z,13.03
2019-05-12T18:51:17.321Z,11.67
2019-05-12T18:53:47.421Z,12.70
2019-05-12T18:56:21.857Z,15.83
2019-05-12T18:58:50.082Z,11.93
2019-05-12T19:01:24.288Z,11.67
2019-05-12T19:03:54.753Z,13.50
2019-05-12T19:06:25.273Z,12.10
2019-05-12T19:08:55.295Z,11.73
2019-05-12T19:11:31.836Z,11.97
2019-05-12T19:13:57.607Z,12.20
2019-05-12T19:16:27.900Z,12.07
2019-05-12T19:18:58.397Z,12.40
2019-05-12T19:21:28.698Z,12.00
2019-05-12T19:23:58.620Z,10.90
2019-05-12T19:26:32.929Z,12.10
2019-05-12T19:29:00.300Z,11.20
2019-05-12T19:31:30.034Z,12.30
2019-05-12T19:34:15.797Z,12.73
2019-05-12T19:36:36.079Z,14.43
2019-05-12T19:39:03.927Z,15.23
2019-05-12T19:41:36.352Z,13.63
2019-05-12T19:44:06.389Z,13.20
2019-05-12T19:46:39.923Z,11.30
2019-05-12T19:49:10.190Z,13.40
2019-05-12T19:51:43.626Z,12.33
2019-05-12T19:54:19.377Z,12.90
2019-05-12T19:56:48.026Z,13.13
2019-05-12T19:59:19.532Z,14.10
2019-05-12T20:01:53.444Z,14.40
2019-05-12T20:04:33.261Z,12.57
2019-05-12T20:06:57.564Z,13.17
2019-05-12T20:09:29.086Z,12.57
2019-05-12T20:12:01.209Z,14.33
2019-05-12T20:14:34.358Z,13.27
2019-05-12T20:17:04.411Z,12.07
2019-05-12T20:19:34.496Z,12.07
2019-05-12T20:22:04.338Z,11.57
2019-05-12T20:24:34.493Z,12.73
2019-05-12T20:27:05.166Z,13.07
2019-05-12T20:29:35.326Z,11.30
2019-05-12T20:32:05.204Z,11.80
2019-05-12T20:34:47.937Z,10.07
2019-05-12T20:37:13.061Z,11.63
2019-05-12T20:39:39.449Z,12.17
2019-05-12T20:42:09.298Z,11.77
2019-05-12T20:44:39.017Z,12.70
2019-05-12T20:47:09.153Z,12.13
2019-05-12T20:49:44.986Z,12.23
2019-05-12T20:52:14.412Z,12.90
2019-05-12T20:54:49.116Z,13.17
2019-05-12T20:57:17.513Z,13.60
2019-05-12T20:59:47.719Z,13.87
2019-05-12T21:02:17.884Z,12.63
2019-05-12T21:05:00.564Z,12.27
2019-05-12T21:07:24.378Z,12.97
2019-05-12T21:09:54.307Z,13.30
2019-05-12T21:12:25.721Z,12.97
2019-05-12T21:15:12.385Z,12.17
2019-05-12T21:17:42.362Z,13.10
2019-05-12T21:20:01.321Z,12.40
2019-05-12T21:22:34.181Z,11.03
2019-05-12T21:25:10.703Z,10.77
2019-05-12T21:27:37.876Z,12.70
2019-05-12T21:30:11.767Z,11.60
2019-05-12T21:32:40.866Z,10.27
2019-05-12T21:35:19.183Z,13.40
2019-05-12T21:37:48.538Z,12.43
2019-05-12T21:40:30.076Z,12.07
2019-05-12T21:42:54.962Z,11.30
2019-05-12T21:45:26.713Z,12.47
2019-05-12T21:47:57.723Z,11.73
2019-05-12T21:50:32.392Z,12.87
2019-05-12T21:53:00.802Z,11.97
2019-05-12T21:55:33.444Z,11.00
2019-05-12T21:58:10.532Z,12.03
2019-05-12T22:00:40.523Z,12.30
2019-05-12T22:03:15.288Z,11.60
2019-05-12T22:05:52.237Z,11.93
2019-05-12T22:08:21.990Z,10.53
2019-05-12T22:10:49.206Z,11.40
2019-05-12T22:13:19.314Z,10.43
2019-05-12T22:15:51.307Z,12.80
2019-05-12T22:18:20.510Z,9.77
2019-05-12T22:20:52.319Z,10.07
2019-05-12T22:23:21.786Z,10.13
2019-05-12T22:25:55.631Z,10.07
2019-05-12T22:28:26.863Z,9.90
2019-05-12T22:30:58.243Z,8.47
2019-05-12T22:33:28.253Z,8.07
2019-05-12T22:36:05.112Z,7.67
2019-05-12T22:38:34.023Z,7.70
2019-05-12T22:41:04.296Z,8.03
2019-05-12T22:43:40.779Z,8.97
2019-05-12T22:46:06.677Z,9.10
2019-05-12T22:48:40.431Z,9.00
2019-05-12T22:51:16.440Z,8.53
2019-05-12T22:53:40.270Z,9.57
2019-05-12T22:56:17.787Z,8.73
2019-05-12T22:58:44.001Z,7.60
2019-05-12T23:01:14.392Z,8.60
2019-05-12T23:03:51.286Z,9.33
2019-05-12T23:06:23.509Z,8.33
2019-05-12T23:08:49.430Z,8.60
2019-05-12T23:11:23.781Z,8.50
2019-05-12T23:13:53.365Z,7.40
2019-05-12T23:16:26.100Z,7.70
2019-05-12T23:18:54.410Z,8.00
2019-05-12T23:21:24.598Z,8.03
2019-05-12T23:23:57.368Z,8.77
2019-05-12T23:26:25.898Z,8.67
2019-05-12T23:28:55.937Z,8.60
2019-05-12T23:31:30.105Z,8.27
2019-05-12T23:33:57.646Z,8.20
2019-05-12T23:36:35.880Z,7.87
2019-05-12T23:39:00.811Z,8.90
2019-05-12T23:41:30.798Z,8.43
2019-05-12T23:44:00.818Z,8.63
2019-05-12T23:46:30.538Z,7.43
2019-05-12T23:49:00.756Z,7.30
2019-05-12T23:51:30.558Z,8.20
2019-05-12T23:54:00.426Z,8.07
2019-05-12T23:56:30.550Z,8.60
2019-05-12T23:59:00.319Z,7.63
